TimeEDT,TemperatureF,Dew PointF,Humidity,Sea Level PressureIn,VisibilityMPH,Wind Direction,Wind SpeedMPH,Gust SpeedMPH,PrecipitationIn,Events,Conditions,WindDirDegrees,DateUTC
12:56 AM,69.1,64.9,87,30.09,-9999.0,South,5.8,-,N/A,,Unknown,170,2013-07-18 04:56:00
1:56 AM,69.1,64.9,87,30.07,-9999.0,SSE,3.5,-,N/A,,Unknown,160,2013-07-18 05:56:00
2:56 AM,72.0,68.0,87,30.09,-9999.0,NW,19.6,35.7,0.10,,Squalls,320,2013-07-18 06:56:00
3:09 AM,71.6,69.8,94,30.09,-9999.0,NW,9.2,-,0.01,,Unknown,320,2013-07-18 07:09:00
3:56 AM,70.0,68.0,93,30.10,-9999.0,ENE,4.6,-,0.12,,Unknown,60,2013-07-18 07:56:00
4:56 AM,71.1,68.0,90,30.06,-9999.0,SW,3.5,-,N/A,,Unknown,220,2013-07-18 08:56:00
5:56 AM,71.1,68.0,90,30.04,-9999.0,SSW,5.8,-,N/A,,Unknown,210,2013-07-18 09:56:00
6:56 AM,71.1,68.0,90,30.05,-9999.0,Calm,Calm,-,N/A,,Unknown,0,2013-07-18 10:56:00
7:56 AM,66.9,66.0,97,30.08,-9999.0,Calm,Calm,-,0.61,,Unknown,0,2013-07-18 11:56:00
8:56 AM,71.1,68.0,90,30.05,-9999.0,Calm,Calm,-,0.15,,Unknown,0,2013-07-18 12:56:00
9:56 AM,72.0,69.1,91,30.06,-9999.0,SSW,4.6,-,0.01,,Unknown,200,2013-07-18 13:56:00
10:56 AM,72.0,69.1,91,30.03,-9999.0,SW,3.5,-,0.07,,Unknown,220,2013-07-18 14:56:00
11:56 AM,72.0,70.0,93,30.02,-9999.0,Calm,Calm,-,0.20,,Unknown,0,2013-07-18 15:56:00
1:56 PM,82.0,71.1,69,29.93,-9999.0,South,10.4,20.7,N/A,,Unknown,190,2013-07-18 17:56:00
2:56 PM,84.9,72.0,65,29.89,-9999.0,South,13.8,21.9,N/A,,Unknown,180,2013-07-18 18:56:00
3:56 PM,84.9,71.1,63,29.85,-9999.0,South,12.7,23.0,N/A,,Unknown,190,2013-07-18 19:56:00
4:56 PM,82.9,70.0,65,29.81,-9999.0,SSW,8.1,20.7,N/A,,Unknown,200,2013-07-18 20:56:00
5:56 PM,84.0,72.0,67,29.79,-9999.0,SSW,9.2,-,N/A,,Unknown,200,2013-07-18 21:56:00
6:56 PM,84.0,73.0,69,29.73,-9999.0,SSW,10.4,19.6,0.01,,Unknown,200,2013-07-18 22:56:00
7:56 PM,70.0,68.0,93,29.76,-9999.0,ENE,8.1,29.9,0.18,,Unknown,70,2013-07-18 23:56:00
8:56 PM,75.9,70.0,82,29.75,-9999.0,South,3.5,-,0.33,,Unknown,180,2013-07-19 00:56:00
9:56 PM,73.9,70.0,87,29.71,-9999.0,SSW,6.9,-,0.01,,Unknown,210,2013-07-19 01:56:00
10:56 PM,75.0,70.0,84,29.71,-9999.0,WSW,3.5,-,N/A,,Unknown,240,2013-07-19 02:56:00
11:56 PM,75.9,71.1,85,29.70,-9999.0,South,5.8,-,N/A,,Unknown,180,2013-07-19 03:56:00